Flight Track Log - Related Links

Times and Time Zones

All times are in EDT time to prevent confusion due to time zone crossing. See the FLG4099 flight status page for this flight to view local times or setup timezone preferences in your user account.


Time Position Orientation Groundspeed Altitude Reporting Facility
EDT Latitude Longitude Course Direction KTS MPH feet Rate Location/Type
Fri 06:17:00 AM 44.3974 -73.5566 253° West  Level FlightAware Approximate
Fri 06:17:08 AM 44.3814 -73.2331 256° West 265 305 6,600  Level Boston Center
Fri 06:18:00 AM 44.3687 -73.6904 253° West  Level FlightAware Approximate
Fri 06:18:08 AM 44.3661 -73.3431 259° West 282 325 9,500  Level Boston Center
Fri 06:19:00 AM 44.3486 -73.8270 259° West  Level FlightAware Approximate
Fri 06:19:08 AM 44.3506 -73.4592 259° West 302 348 11,200  Level Boston Center
Fri 06:20:00 AM 44.3278 -73.9634 256° West  Level FlightAware Approximate
Fri 06:20:08 AM 44.3306 -73.5981 259° West 348 400 12,200  Level Boston Center
Fri 06:21:00 AM 44.3030 -74.0985 256° West  Level FlightAware Approximate
Fri 06:21:08 AM 44.3100 -73.7514 259° West 393 452 13,400  Level Boston Center
Fri 06:22:00 AM 44.2780 -74.2334 256° West  Level FlightAware Approximate
Fri 06:22:20 AM 44.2806 -73.9422 258° West 415 478 15,300  Level Boston Center
Fri 06:23:20 AM 44.2575 -74.1039 259° West 421 484 16,800 1,400 Climbing Boston Center
Fri 06:24:20 AM 44.2344 -74.2597 258° West 421 484 18,100 1,200 Climbing Boston Center
Fri 06:25:20 AM 44.2108 -74.4211 259° West 426 490 19,200 1,250 Climbing Boston Center
Fri 06:26:20 AM 44.1850 -74.5825 257° West 431 496 20,600 1,300 Climbing Boston Center
Fri 06:27:20 AM 44.1633 -74.7439 259° West 431 496 21,800 1,200 Climbing Boston Center
Fri 06:28:20 AM 44.1414 -74.8906 258° West 431 496 23,000 1,050 Climbing Boston Center
Fri 06:29:20 AM 44.1172 -75.0486 258° West 431 496 23,900 850 Climbing Boston Center
Fri 06:30:20 AM 44.0925 -75.2122 258° West 431 496 24,700 800 Climbing Boston Center
Fri 06:31:20 AM 44.0656 -75.3758 257° West 431 496 25,500 800 Climbing Boston Center
Fri 06:32:20 AM 44.0403 -75.5422 258° West 431 496 26,300 800 Climbing Boston Center
Fri 06:33:20 AM 44.0150 -75.7053 258° West 431 496 27,100 650 Climbing Boston Center
Fri 06:34:20 AM 43.9872 -75.8683 257° West 436 502 27,600 450 Climbing Boston Center
Fri 06:35:20 AM 43.9614 -76.0342 258° West 436 502 28,000 200 Climbing Boston Center
Fri 06:36:20 AM 43.9517 -76.2069 266° West 446 513 28,000  Level Boston Center
Fri 06:37:20 AM 43.9478 -76.3825 268° West 446 513 28,000  Level Boston Center
Fri 06:38:20 AM 43.9417 -76.5553 267° West 446 513 28,000  Level Boston Center
Fri 06:39:45 AM 43.9333 -76.8000 267° West 460 529 28,000  Level Toronto Center
Fri 06:40:45 AM 43.9167 -76.9667 262° West 460 529 28,000  Level Toronto Center
Fri 06:41:45 AM 43.9000 -77.1500 263° West 460 529 28,000  Level Toronto Center
Fri 06:42:45 AM 43.9000 -77.3167 270° West 460 529 28,000  Level Toronto Center
Fri 06:43:45 AM 43.9000 -77.5000 270° West 460 529 28,000  Level Toronto Center
Fri 06:44:45 AM 43.9000 -77.6833 270° West 460 529 28,000  Level Toronto Center
Fri 06:45:45 AM 43.8833 -77.8500 262° West 460 529 28,000  Level Toronto Center
Fri 06:46:45 AM 43.8667 -78.0333 263° West 460 529 28,000  Level Toronto Center
Fri 06:47:45 AM 43.8667 -78.2167 270° West 460 529 28,000  Level Toronto Center
Fri 06:48:45 AM 43.8500 -78.3833 262° West 460 529 28,000  Level Toronto Center
Fri 06:49:45 AM 43.8667 -78.5667 277° West 460 529 28,000  Level Toronto Center
Fri 06:50:45 AM 43.8500 -78.7500 263° West 460 529 28,000  Level Toronto Center
Fri 06:51:45 AM 43.8500 -78.9333 270° West 460 529 28,000  Level Toronto Center
Fri 06:52:45 AM 43.8333 -79.1000 262° West 460 529 28,000  Level Toronto Center
Fri 06:53:45 AM 43.7667 -79.2667 241° Southwest 460 529 28,000  Level Toronto Center
Fri 06:54:45 AM 43.6833 -79.4000 229° Southwest 460 529 28,000  Level Toronto Center
Fri 06:55:45 AM 43.6000 -79.5167 225° Southwest 460 529 28,000  Level Toronto Center
Fri 06:56:45 AM 43.5167 -79.6500 229° Southwest 470 541 28,000  Level Toronto Center
Fri 06:57:45 AM 43.4333 -79.8000 233° Southwest 460 529 28,000  Level Toronto Center
Fri 06:58:45 AM 43.3500 -79.9000 221° Southwest 460 529 28,000  Level Toronto Center
Fri 06:59:45 AM 43.2667 -80.0500 233° Southwest 460 529 28,000 -100 Level Toronto Center
Fri 07:00:45 AM 43.1667 -80.1833 224° Southwest 460 529 27,800 -800 Descending Toronto Center
Fri 07:01:45 AM 43.0833 -80.3167 229° Southwest 460 529 26,400 -1,400 Descending Toronto Center
Fri 07:02:45 AM 43.0000 -80.4333 226° Southwest 460 529 25,000 -1,500 Descending Toronto Center
Fri 07:03:45 AM 42.9000 -80.5667 224° Southwest 470 541 23,400 -1,000 Descending Toronto Center
Fri 07:04:45 AM 42.8333 -80.7000 236° Southwest 460 529 23,000 -200 Descending Toronto Center
Fri 07:05:45 AM 42.7167 -80.8167 216° Southwest 460 529 23,000  Level Toronto Center
Fri 07:07:00 AM 42.6906 -81.0350 261° West 445 512 23,000  Level Cleveland Center
Fri 07:07:59 AM 42.6692 -81.2017 260° West 450 518 23,000  Level Cleveland Center
Fri 07:08:59 AM 42.6514 -81.3764 262° West 465 535 23,000  Level Cleveland Center
Fri 07:10:00 AM 42.6311 -81.5456 261° West 465 535 23,000 -900 Level Cleveland Center
Fri 07:10:59 AM 42.6111 -81.7058 260° West 455 524 21,200 -1,815 Descending Cleveland Center
Fri 07:11:59 AM 42.5928 -81.8494 260° West 442 509 19,400 -1,835 Descending Cleveland Center
Fri 07:13:00 AM 42.5742 -82.0097 261° West 437 503 17,500 -2,100 Descending Cleveland Center
Fri 07:13:59 AM 42.5536 -82.1644 260° West 430 495 15,200 -2,471 Descending Cleveland Center
Fri 07:14:42 AM 42.5414 -82.2797 262° West 400 460 13,300 -2,200 Descending Cleveland Center
Fri 07:14:59 AM 42.5367 -82.3133 259° West 419 482 13,000 -1,000 Descending Cleveland Center
Fri 07:16:00 AM 42.5181 -82.4453 259° West 395 455 12,000 -500 Descending Cleveland Center
Fri 07:16:59 AM 42.5036 -82.5547 260° West 344 396 12,000 -504 Level Cleveland Center
Fri 07:17:59 AM 42.4686 -82.6519 244° Southwest 309 356 11,000 -1,240 Descending Cleveland Center
Fri 07:19:00 AM 42.4336 -82.7522 245° Southwest 297 342 9,500 -1,150 Descending Cleveland Center
Fri 07:19:59 AM 42.4192 -82.8472 258° West 283 326 8,700 -1,210 Descending Cleveland Center
Fri 07:20:59 AM 42.4528 -82.9331 298° West 246 283 7,100 -1,350 Descending Cleveland Center
Fri 07:21:59 AM 42.4656 -83.0178 282° West 232 267 6,000 -700 Descending Cleveland Center
Fri 07:22:59 AM 42.4519 -83.0792 253° West 187 215 5,700 -700 Descending Cleveland Center
Fri 07:23:59 AM 42.4278 -83.1375 241° Southwest 176 203 4,600 -870 Descending Cleveland Center
Fri 07:25:10 AM 42.4011 -83.2011 240° Southwest 167 192 3,800 -682 Descending Cleveland Center
Fri 07:26:11 AM 42.3608 -83.2331 210° Southwest 169 194 3,100 -590 Descending Cleveland Center
Fri 07:27:12 AM 42.3164 -83.2622 206° Southwest 173 199 2,600 -492 Descending Cleveland Center

Login

Don't have an account? Register now (free) for customized features, flight alerts, and more!